Aérodrome :
LOGIN :

S'inscrire | Disclaimer

   EN    FR    IT 

 










Légende :    VFR   VFR Marginal   IFR   IFR Intensif   IFR Très Intensif
Visi : 
Plafond : 
>= 8 km
>= 3000ft
5 à 8 km
1000 à 3000 ft
1500m à 5 km
500 à 1000 ft
800 à 1500m
200 à 500 ft
< 800m
< 200 ft
Symboles :   Orages  Brouillard  Fortes neiges  Fortes précipitations  Vent > 20 kt
SIGMETs :   Divers  Orages  Givrage  Turbulence  Onde Orograph.  Cendres Volcan.






- Altitude de l'aérodrome : 49 ft
- Code IATA : AOI


LIPY - Ancona Falconara

DERNIER METAR :
  • 011450Z AUTO 24008KT 9999 BKN070/// 23/12 Q1007

METARs EXPIRÉS :
  • 011420Z AUTO VRB02KT 9999 BKN072/// 23/14 Q1007
  • 011350Z AUTO VRB01KT 9999 OVC064/// 23/16 Q1008
  • 011320Z AUTO 06005KT 030V120 9999 BKN053/// 22/17 Q1008
  • 011250Z AUTO 06007KT 040V100 9999 BKN064/// 23/16 Q1008
  • 011220Z AUTO 05009KT 020V090 9999 BKN066/// 22/15 Q1008

TAF TAF LIPY
Valide du 01 à 12h jusqu'au 02 à 12h UTC


011100Z 0112/0212 16010KT 9999 SCT050
TEMPO 0112/0115 RA
BECMG 0116/0118 25006KT



MET'MAP, la Météo Aéronautique d'un coup d'oeil ! - Copyright ORBIFLY Décembre 2007 - Disclaimer

ORBIFLY MET'MAP TEAM :

Programmation & Développement : Alexandra Zaïnal
Sur une idée originale de : Baudouin d'Aumeries
Assistance à la programmation : Marc-Olivier Méhu
Soutien technique & logistique : Manuel Goepfert

Contact : metmap@orbifly.com




SOURCES & CREDITS :

   NOAA